sensor_id;sensor_type;location;lat;lon;timestamp;P1;durP1;ratioP1;P2;durP2;ratioP2
78549;SDS011;68091;52.130;5.570;2023-06-04T00:00:51;6.93;;;1.60;;
78549;SDS011;68091;52.130;5.570;2023-06-04T00:03:17;3.97;;;1.60;;
78549;SDS011;68091;52.130;5.570;2023-06-04T00:05:43;6.50;;;1.92;;
78549;SDS011;68091;52.130;5.570;2023-06-04T00:08:08;3.58;;;1.60;;
78549;SDS011;68091;52.130;5.570;2023-06-04T00:10:34;5.13;;;1.88;;
78549;SDS011;68091;52.130;5.570;2023-06-04T00:13:00;6.55;;;1.83;;
78549;SDS011;68091;52.130;5.570;2023-06-04T00:15:26;12.45;;;2.35;;
78549;SDS011;68091;52.130;5.570;2023-06-04T00:17:51;3.15;;;1.58;;
78549;SDS011;68091;52.130;5.570;2023-06-04T00:20:17;5.53;;;1.90;;
78549;SDS011;68091;52.130;5.570;2023-06-04T00:22:43;4.75;;;1.60;;
78549;SDS011;68091;52.130;5.570;2023-06-04T00:25:09;4.93;;;1.92;;
78549;SDS011;68091;52.130;5.570;2023-06-04T00:27:36;5.07;;;1.52;;
78549;SDS011;68091;52.130;5.570;2023-06-04T00:30:02;4.13;;;1.98;;
78549;SDS011;68091;52.130;5.570;2023-06-04T00:32:29;6.07;;;1.80;;
78549;SDS011;68091;52.130;5.570;2023-06-04T00:34:57;5.25;;;1.80;;
78549;SDS011;68091;52.130;5.570;2023-06-04T00:37:23;3.42;;;1.60;;
78549;SDS011;68091;52.130;5.570;2023-06-04T00:39:49;2.85;;;1.65;;
78549;SDS011;68091;52.130;5.570;2023-06-04T00:42:16;4.63;;;1.70;;
78549;SDS011;68091;52.130;5.570;2023-06-04T00:44:45;3.03;;;1.52;;
78549;SDS011;68091;52.130;5.570;2023-06-04T00:47:14;4.68;;;1.50;;
78549;SDS011;68091;52.130;5.570;2023-06-04T00:49:41;4.50;;;1.50;;
78549;SDS011;68091;52.130;5.570;2023-06-04T00:52:08;3.17;;;1.70;;
78549;SDS011;68091;52.130;5.570;2023-06-04T00:54:35;3.47;;;1.55;;
78549;SDS011;68091;52.130;5.570;2023-06-04T00:57:02;5.00;;;2.10;;
78549;SDS011;68091;52.130;5.570;2023-06-04T00:59:29;4.25;;;1.65;;
78549;SDS011;68091;52.130;5.570;2023-06-04T01:02:06;5.70;;;1.85;;
78549;SDS011;68091;52.130;5.570;2023-06-04T01:07:35;4.10;;;1.70;;
78549;SDS011;68091;52.130;5.570;2023-06-04T01:10:02;4.03;;;1.70;;
78549;SDS011;68091;52.130;5.570;2023-06-04T01:12:28;2.45;;;1.70;;
78549;SDS011;68091;52.130;5.570;2023-06-04T01:14:53;3.47;;;2.05;;
78549;SDS011;68091;52.130;5.570;2023-06-04T01:17:21;3.90;;;1.65;;
78549;SDS011;68091;52.130;5.570;2023-06-04T01:25:34;6.28;;;1.73;;
78549;SDS011;68091;52.130;5.570;2023-06-04T01:28:04;4.70;;;2.13;;
78549;SDS011;68091;52.130;5.570;2023-06-04T01:30:31;3.60;;;1.80;;
78549;SDS011;68091;52.130;5.570;2023-06-04T01:32:59;2.78;;;1.98;;
78549;SDS011;68091;52.130;5.570;2023-06-04T01:35:26;10.35;;;1.80;;
78549;SDS011;68091;52.130;5.570;2023-06-04T01:37:53;6.07;;;1.90;;
78549;SDS011;68091;52.130;5.570;2023-06-04T01:40:20;2.88;;;2.00;;
78549;SDS011;68091;52.130;5.570;2023-06-04T01:42:47;3.13;;;1.55;;
78549;SDS011;68091;52.130;5.570;2023-06-04T01:45:13;4.53;;;2.00;;
78549;SDS011;68091;52.130;5.570;2023-06-04T01:47:39;4.75;;;1.90;;
78549;SDS011;68091;52.130;5.570;2023-06-04T01:50:06;2.40;;;1.65;;
78549;SDS011;68091;52.130;5.570;2023-06-04T01:52:35;3.33;;;2.10;;
78549;SDS011;68091;52.130;5.570;2023-06-04T01:55:02;5.35;;;1.83;;
78549;SDS011;68091;52.130;5.570;2023-06-04T01:57:29;3.70;;;1.75;;
78549;SDS011;68091;52.130;5.570;2023-06-04T01:59:55;3.88;;;2.08;;
78549;SDS011;68091;52.130;5.570;2023-06-04T02:02:21;4.88;;;2.58;;
78549;SDS011;68091;52.130;5.570;2023-06-04T02:04:47;3.92;;;1.75;;
78549;SDS011;68091;52.130;5.570;2023-06-04T02:07:16;4.18;;;2.35;;
78549;SDS011;68091;52.130;5.570;2023-06-04T02:09:46;4.13;;;1.80;;
78549;SDS011;68091;52.130;5.570;2023-06-04T02:12:13;2.67;;;1.60;;
78549;SDS011;68091;52.130;5.570;2023-06-04T02:14:42;3.95;;;1.90;;
78549;SDS011;68091;52.130;5.570;2023-06-04T02:17:10;3.53;;;1.88;;
78549;SDS011;68091;52.130;5.570;2023-06-04T02:19:44;6.13;;;2.45;;
78549;SDS011;68091;52.130;5.570;2023-06-04T02:22:15;3.65;;;1.77;;
78549;SDS011;68091;52.130;5.570;2023-06-04T02:24:42;4.65;;;1.77;;
78549;SDS011;68091;52.130;5.570;2023-06-04T02:27:08;4.95;;;1.70;;
78549;SDS011;68091;52.130;5.570;2023-06-04T02:29:34;2.80;;;1.60;;
78549;SDS011;68091;52.130;5.570;2023-06-04T02:32:01;3.58;;;1.85;;
78549;SDS011;68091;52.130;5.570;2023-06-04T02:34:27;5.93;;;1.73;;
78549;SDS011;68091;52.130;5.570;2023-06-04T02:36:53;2.92;;;1.80;;
78549;SDS011;68091;52.130;5.570;2023-06-04T02:39:19;4.82;;;1.80;;
78549;SDS011;68091;52.130;5.570;2023-06-04T02:41:45;7.60;;;1.90;;
78549;SDS011;68091;52.130;5.570;2023-06-04T02:44:11;7.00;;;1.98;;
78549;SDS011;68091;52.130;5.570;2023-06-04T02:46:37;5.28;;;2.03;;
78549;SDS011;68091;52.130;5.570;2023-06-04T02:49:03;4.40;;;2.08;;
78549;SDS011;68091;52.130;5.570;2023-06-04T02:51:29;3.58;;;2.03;;
78549;SDS011;68091;52.130;5.570;2023-06-04T02:53:55;4.57;;;2.03;;
78549;SDS011;68091;52.130;5.570;2023-06-04T02:56:21;6.13;;;2.25;;
78549;SDS011;68091;52.130;5.570;2023-06-04T02:58:53;4.07;;;1.70;;
78549;SDS011;68091;52.130;5.570;2023-06-04T03:01:24;5.30;;;1.65;;
78549;SDS011;68091;52.130;5.570;2023-06-04T03:03:51;6.18;;;1.98;;
78549;SDS011;68091;52.130;5.570;2023-06-04T03:06:18;5.28;;;1.90;;
78549;SDS011;68091;52.130;5.570;2023-06-04T03:08:46;2.60;;;2.13;;
78549;SDS011;68091;52.130;5.570;2023-06-04T03:11:12;3.33;;;2.05;;
78549;SDS011;68091;52.130;5.570;2023-06-04T03:13:38;5.13;;;2.10;;
78549;SDS011;68091;52.130;5.570;2023-06-04T03:16:04;3.65;;;2.20;;
78549;SDS011;68091;52.130;5.570;2023-06-04T03:18:35;5.43;;;2.50;;
78549;SDS011;68091;52.130;5.570;2023-06-04T03:21:09;5.65;;;2.20;;
78549;SDS011;68091;52.130;5.570;2023-06-04T03:23:36;6.68;;;2.15;;
78549;SDS011;68091;52.130;5.570;2023-06-04T03:26:03;4.45;;;2.40;;
78549;SDS011;68091;52.130;5.570;2023-06-04T03:28:33;4.65;;;1.90;;
78549;SDS011;68091;52.130;5.570;2023-06-04T03:31:02;6.20;;;2.17;;
78549;SDS011;68091;52.130;5.570;2023-06-04T03:33:27;5.97;;;2.10;;
78549;SDS011;68091;52.130;5.570;2023-06-04T03:35:53;6.53;;;2.33;;
78549;SDS011;68091;52.130;5.570;2023-06-04T03:38:22;6.80;;;2.10;;
78549;SDS011;68091;52.130;5.570;2023-06-04T03:40:48;6.35;;;2.38;;
78549;SDS011;68091;52.130;5.570;2023-06-04T03:43:14;6.97;;;2.45;;
78549;SDS011;68091;52.130;5.570;2023-06-04T03:45:40;5.70;;;2.28;;
78549;SDS011;68091;52.130;5.570;2023-06-04T03:48:06;4.10;;;2.38;;
78549;SDS011;68091;52.130;5.570;2023-06-04T03:50:32;7.78;;;2.60;;
78549;SDS011;68091;52.130;5.570;2023-06-04T03:52:58;4.68;;;2.40;;
78549;SDS011;68091;52.130;5.570;2023-06-04T03:55:23;6.70;;;2.72;;
78549;SDS011;68091;52.130;5.570;2023-06-04T03:57:49;6.35;;;2.33;;
78549;SDS011;68091;52.130;5.570;2023-06-04T04:00:15;4.40;;;2.80;;
78549;SDS011;68091;52.130;5.570;2023-06-04T04:02:41;4.82;;;2.20;;
78549;SDS011;68091;52.130;5.570;2023-06-04T04:05:08;5.55;;;2.78;;
78549;SDS011;68091;52.130;5.570;2023-06-04T04:07:34;4.45;;;2.35;;
78549;SDS011;68091;52.130;5.570;2023-06-04T04:10:00;8.90;;;2.67;;
78549;SDS011;68091;52.130;5.570;2023-06-04T04:12:26;5.50;;;2.28;;
78549;SDS011;68091;52.130;5.570;2023-06-04T04:14:52;7.25;;;2.90;;
78549;SDS011;68091;52.130;5.570;2023-06-04T04:17:17;9.13;;;2.80;;
78549;SDS011;68091;52.130;5.570;2023-06-04T04:19:43;7.22;;;3.28;;
78549;SDS011;68091;52.130;5.570;2023-06-04T04:22:12;5.88;;;2.92;;
78549;SDS011;68091;52.130;5.570;2023-06-04T04:24:42;8.88;;;3.17;;
78549;SDS011;68091;52.130;5.570;2023-06-04T04:27:08;7.55;;;3.08;;
78549;SDS011;68091;52.130;5.570;2023-06-04T04:29:38;7.30;;;3.15;;
78549;SDS011;68091;52.130;5.570;2023-06-04T04:32:04;9.35;;;3.08;;
78549;SDS011;68091;52.130;5.570;2023-06-04T04:34:37;8.23;;;3.05;;
78549;SDS011;68091;52.130;5.570;2023-06-04T04:37:08;9.88;;;2.95;;
78549;SDS011;68091;52.130;5.570;2023-06-04T04:39:35;7.43;;;2.92;;
78549;SDS011;68091;52.130;5.570;2023-06-04T04:42:01;7.20;;;3.03;;
78549;SDS011;68091;52.130;5.570;2023-06-04T04:44:28;8.55;;;2.75;;
78549;SDS011;68091;52.130;5.570;2023-06-04T04:46:53;7.85;;;3.03;;
78549;SDS011;68091;52.130;5.570;2023-06-04T04:49:19;7.88;;;3.25;;
78549;SDS011;68091;52.130;5.570;2023-06-04T04:51:45;6.93;;;2.63;;
78549;SDS011;68091;52.130;5.570;2023-06-04T04:54:11;9.23;;;3.22;;
78549;SDS011;68091;52.130;5.570;2023-06-04T04:56:37;5.95;;;3.00;;
78549;SDS011;68091;52.130;5.570;2023-06-04T04:59:03;9.35;;;3.35;;
78549;SDS011;68091;52.130;5.570;2023-06-04T05:01:29;6.75;;;2.88;;
78549;SDS011;68091;52.130;5.570;2023-06-04T05:03:54;9.20;;;3.05;;
78549;SDS011;68091;52.130;5.570;2023-06-04T05:06:20;8.07;;;3.50;;
78549;SDS011;68091;52.130;5.570;2023-06-04T05:08:47;8.93;;;3.17;;
78549;SDS011;68091;52.130;5.570;2023-06-04T05:11:13;7.75;;;3.33;;
78549;SDS011;68091;52.130;5.570;2023-06-04T05:13:38;8.57;;;3.40;;
78549;SDS011;68091;52.130;5.570;2023-06-04T05:16:06;9.13;;;3.42;;
78549;SDS011;68091;52.130;5.570;2023-06-04T05:18:33;5.32;;;2.78;;
78549;SDS011;68091;52.130;5.570;2023-06-04T05:20:59;9.13;;;3.03;;
78549;SDS011;68091;52.130;5.570;2023-06-04T05:23:27;6.15;;;2.67;;
78549;SDS011;68091;52.130;5.570;2023-06-04T05:25:58;7.05;;;2.90;;
78549;SDS011;68091;52.130;5.570;2023-06-04T05:28:24;9.05;;;3.05;;
78549;SDS011;68091;52.130;5.570;2023-06-04T05:30:53;10.63;;;3.22;;
78549;SDS011;68091;52.130;5.570;2023-06-04T05:33:24;7.57;;;2.83;;
78549;SDS011;68091;52.130;5.570;2023-06-04T05:35:52;10.75;;;3.90;;
78549;SDS011;68091;52.130;5.570;2023-06-04T05:38:25;4.72;;;2.70;;
78549;SDS011;68091;52.130;5.570;2023-06-04T05:40:51;9.57;;;2.72;;
78549;SDS011;68091;52.130;5.570;2023-06-04T05:43:20;5.35;;;2.53;;
78549;SDS011;68091;52.130;5.570;2023-06-04T05:45:47;8.00;;;2.80;;
78549;SDS011;68091;52.130;5.570;2023-06-04T05:48:13;6.65;;;2.92;;
78549;SDS011;68091;52.130;5.570;2023-06-04T05:50:40;7.20;;;2.72;;
78549;SDS011;68091;52.130;5.570;2023-06-04T05:53:06;7.15;;;3.35;;
78549;SDS011;68091;52.130;5.570;2023-06-04T05:55:32;6.97;;;2.63;;
78549;SDS011;68091;52.130;5.570;2023-06-04T05:57:58;7.75;;;2.67;;
78549;SDS011;68091;52.130;5.570;2023-06-04T06:00:24;7.47;;;2.88;;
78549;SDS011;68091;52.130;5.570;2023-06-04T06:02:52;4.55;;;2.90;;
78549;SDS011;68091;52.130;5.570;2023-06-04T06:05:18;6.32;;;2.40;;
78549;SDS011;68091;52.130;5.570;2023-06-04T06:07:45;6.35;;;2.38;;
78549;SDS011;68091;52.130;5.570;2023-06-04T06:10:11;7.40;;;2.42;;
78549;SDS011;68091;52.130;5.570;2023-06-04T06:12:37;5.80;;;2.30;;
78549;SDS011;68091;52.130;5.570;2023-06-04T06:15:03;5.68;;;2.20;;
78549;SDS011;68091;52.130;5.570;2023-06-04T06:17:30;4.63;;;2.47;;
78549;SDS011;68091;52.130;5.570;2023-06-04T06:19:57;8.90;;;2.92;;
78549;SDS011;68091;52.130;5.570;2023-06-04T06:22:31;8.57;;;2.75;;
78549;SDS011;68091;52.130;5.570;2023-06-04T06:24:57;3.83;;;1.98;;
78549;SDS011;68091;52.130;5.570;2023-06-04T06:27:23;6.20;;;2.42;;
78549;SDS011;68091;52.130;5.570;2023-06-04T06:29:48;6.75;;;2.58;;
78549;SDS011;68091;52.130;5.570;2023-06-04T06:32:14;7.47;;;2.55;;
78549;SDS011;68091;52.130;5.570;2023-06-04T06:34:40;8.07;;;2.22;;
78549;SDS011;68091;52.130;5.570;2023-06-04T06:37:06;4.90;;;2.17;;
78549;SDS011;68091;52.130;5.570;2023-06-04T06:39:32;9.27;;;2.47;;
78549;SDS011;68091;52.130;5.570;2023-06-04T06:41:58;7.10;;;2.20;;
78549;SDS011;68091;52.130;5.570;2023-06-04T06:44:23;6.00;;;2.17;;
78549;SDS011;68091;52.130;5.570;2023-06-04T06:46:49;7.13;;;2.35;;
78549;SDS011;68091;52.130;5.570;2023-06-04T06:49:15;8.25;;;2.60;;
78549;SDS011;68091;52.130;5.570;2023-06-04T06:51:41;8.90;;;2.53;;
78549;SDS011;68091;52.130;5.570;2023-06-04T06:54:10;3.83;;;1.98;;
78549;SDS011;68091;52.130;5.570;2023-06-04T06:56:38;6.47;;;2.15;;
78549;SDS011;68091;52.130;5.570;2023-06-04T06:59:04;6.13;;;2.63;;
78549;SDS011;68091;52.130;5.570;2023-06-04T07:01:33;8.95;;;2.58;;
78549;SDS011;68091;52.130;5.570;2023-06-04T07:03:58;6.32;;;1.85;;
78549;SDS011;68091;52.130;5.570;2023-06-04T07:06:34;7.38;;;2.20;;
78549;SDS011;68091;52.130;5.570;2023-06-04T07:09:02;5.65;;;2.05;;
78549;SDS011;68091;52.130;5.570;2023-06-04T07:11:39;5.53;;;2.17;;
78549;SDS011;68091;52.130;5.570;2023-06-04T07:14:10;5.90;;;2.20;;
78549;SDS011;68091;52.130;5.570;2023-06-04T07:16:46;4.75;;;2.00;;
78549;SDS011;68091;52.130;5.570;2023-06-04T07:19:11;6.60;;;2.30;;
78549;SDS011;68091;52.130;5.570;2023-06-04T07:21:37;4.35;;;2.40;;
78549;SDS011;68091;52.130;5.570;2023-06-04T07:24:03;6.35;;;1.80;;
78549;SDS011;68091;52.130;5.570;2023-06-04T07:26:29;5.60;;;1.70;;
78549;SDS011;68091;52.130;5.570;2023-06-04T07:28:55;5.03;;;2.28;;
78549;SDS011;68091;52.130;5.570;2023-06-04T07:31:22;6.93;;;2.83;;
78549;SDS011;68091;52.130;5.570;2023-06-04T07:33:48;3.70;;;1.60;;
78549;SDS011;68091;52.130;5.570;2023-06-04T07:36:13;4.50;;;1.60;;
78549;SDS011;68091;52.130;5.570;2023-06-04T07:38:39;5.38;;;1.75;;
78549;SDS011;68091;52.130;5.570;2023-06-04T07:41:05;6.32;;;1.73;;
78549;SDS011;68091;52.130;5.570;2023-06-04T07:43:33;6.05;;;1.80;;
78549;SDS011;68091;52.130;5.570;2023-06-04T07:46:00;7.18;;;1.92;;
78549;SDS011;68091;52.130;5.570;2023-06-04T07:48:29;6.57;;;1.90;;
78549;SDS011;68091;52.130;5.570;2023-06-04T07:50:59;9.85;;;1.63;;
78549;SDS011;68091;52.130;5.570;2023-06-04T07:53:26;4.70;;;1.95;;
78549;SDS011;68091;52.130;5.570;2023-06-04T07:55:52;5.45;;;1.77;;
78549;SDS011;68091;52.130;5.570;2023-06-04T07:58:18;4.20;;;1.75;;
78549;SDS011;68091;52.130;5.570;2023-06-04T08:00:44;5.00;;;2.20;;
78549;SDS011;68091;52.130;5.570;2023-06-04T08:03:10;5.78;;;1.80;;
78549;SDS011;68091;52.130;5.570;2023-06-04T08:05:40;7.32;;;1.60;;
78549;SDS011;68091;52.130;5.570;2023-06-04T08:08:06;5.60;;;1.98;;
78549;SDS011;68091;52.130;5.570;2023-06-04T08:10:35;6.82;;;2.13;;
78549;SDS011;68091;52.130;5.570;2023-06-04T08:13:04;4.75;;;1.80;;
78549;SDS011;68091;52.130;5.570;2023-06-04T08:15:30;4.57;;;1.50;;
78549;SDS011;68091;52.130;5.570;2023-06-04T08:17:56;3.50;;;1.10;;
78549;SDS011;68091;52.130;5.570;2023-06-04T08:20:24;3.63;;;1.75;;
78549;SDS011;68091;52.130;5.570;2023-06-04T08:22:50;6.88;;;1.80;;
78549;SDS011;68091;52.130;5.570;2023-06-04T08:25:16;5.82;;;1.40;;
78549;SDS011;68091;52.130;5.570;2023-06-04T08:27:42;5.25;;;1.75;;
78549;SDS011;68091;52.130;5.570;2023-06-04T08:30:08;3.22;;;1.40;;
78549;SDS011;68091;52.130;5.570;2023-06-04T08:32:34;3.00;;;1.10;;
78549;SDS011;68091;52.130;5.570;2023-06-04T08:35:00;6.65;;;1.27;;
78549;SDS011;68091;52.130;5.570;2023-06-04T08:37:30;3.88;;;1.10;;
78549;SDS011;68091;52.130;5.570;2023-06-04T08:39:56;4.88;;;1.40;;
78549;SDS011;68091;52.130;5.570;2023-06-04T08:42:22;3.88;;;1.23;;
78549;SDS011;68091;52.130;5.570;2023-06-04T08:44:57;4.40;;;1.20;;
78549;SDS011;68091;52.130;5.570;2023-06-04T08:47:24;3.92;;;1.15;;
78549;SDS011;68091;52.130;5.570;2023-06-04T08:49:51;3.25;;;1.05;;
78549;SDS011;68091;52.130;5.570;2023-06-04T08:52:21;2.15;;;1.00;;
78549;SDS011;68091;52.130;5.570;2023-06-04T08:54:49;3.42;;;1.00;;
78549;SDS011;68091;52.130;5.570;2023-06-04T08:57:30;4.43;;;1.10;;
78549;SDS011;68091;52.130;5.570;2023-06-04T08:59:56;3.95;;;1.20;;
78549;SDS011;68091;52.130;5.570;2023-06-04T09:02:22;3.05;;;0.90;;
78549;SDS011;68091;52.130;5.570;2023-06-04T09:04:51;1.83;;;1.10;;
78549;SDS011;68091;52.130;5.570;2023-06-04T09:07:20;3.58;;;1.10;;
78549;SDS011;68091;52.130;5.570;2023-06-04T09:09:49;2.42;;;0.98;;
78549;SDS011;68091;52.130;5.570;2023-06-04T09:12:17;5.28;;;1.35;;
78549;SDS011;68091;52.130;5.570;2023-06-04T09:14:49;5.50;;;0.70;;
78549;SDS011;68091;52.130;5.570;2023-06-04T09:17:24;1.92;;;0.98;;
78549;SDS011;68091;52.130;5.570;2023-06-04T09:19:50;3.22;;;1.10;;
78549;SDS011;68091;52.130;5.570;2023-06-04T09:22:19;2.25;;;0.80;;
78549;SDS011;68091;52.130;5.570;2023-06-04T09:25:06;3.45;;;0.93;;
78549;SDS011;68091;52.130;5.570;2023-06-04T09:27:46;1.90;;;1.10;;
78549;SDS011;68091;52.130;5.570;2023-06-04T09:30:12;2.67;;;0.90;;
78549;SDS011;68091;52.130;5.570;2023-06-04T09:32:38;5.53;;;1.17;;
78549;SDS011;68091;52.130;5.570;2023-06-04T09:35:08;10.18;;;2.05;;
78549;SDS011;68091;52.130;5.570;2023-06-04T09:37:39;19.42;;;3.38;;
78549;SDS011;68091;52.130;5.570;2023-06-04T09:40:06;4.63;;;0.90;;
78549;SDS011;68091;52.130;5.570;2023-06-04T09:42:47;4.97;;;1.30;;
78549;SDS011;68091;52.130;5.570;2023-06-04T09:45:31;8.02;;;2.00;;
78549;SDS011;68091;52.130;5.570;2023-06-04T09:48:01;2.50;;;1.15;;
78549;SDS011;68091;52.130;5.570;2023-06-04T09:50:29;4.15;;;1.30;;
78549;SDS011;68091;52.130;5.570;2023-06-04T09:52:57;2.42;;;1.25;;
78549;SDS011;68091;52.130;5.570;2023-06-04T09:55:22;1.45;;;0.88;;
78549;SDS011;68091;52.130;5.570;2023-06-04T09:57:49;4.80;;;1.10;;
78549;SDS011;68091;52.130;5.570;2023-06-04T10:00:19;1.77;;;0.90;;
78549;SDS011;68091;52.130;5.570;2023-06-04T10:02:48;4.78;;;1.27;;
78549;SDS011;68091;52.130;5.570;2023-06-04T10:05:14;3.28;;;1.20;;
78549;SDS011;68091;52.130;5.570;2023-06-04T10:07:44;3.13;;;1.17;;
78549;SDS011;68091;52.130;5.570;2023-06-04T10:10:14;2.45;;;1.10;;
78549;SDS011;68091;52.130;5.570;2023-06-04T10:12:41;4.95;;;1.20;;
78549;SDS011;68091;52.130;5.570;2023-06-04T10:15:12;2.38;;;1.10;;
78549;SDS011;68091;52.130;5.570;2023-06-04T10:17:38;3.63;;;0.90;;
78549;SDS011;68091;52.130;5.570;2023-06-04T10:20:08;2.88;;;1.30;;
78549;SDS011;68091;52.130;5.570;2023-06-04T10:22:35;4.95;;;1.20;;
78549;SDS011;68091;52.130;5.570;2023-06-04T10:25:02;2.42;;;0.90;;
78549;SDS011;68091;52.130;5.570;2023-06-04T10:27:30;10.93;;;1.90;;
78549;SDS011;68091;52.130;5.570;2023-06-04T10:29:56;3.00;;;0.98;;
78549;SDS011;68091;52.130;5.570;2023-06-04T10:32:26;4.82;;;1.48;;
78549;SDS011;68091;52.130;5.570;2023-06-04T10:34:53;4.40;;;1.13;;
78549;SDS011;68091;52.130;5.570;2023-06-04T10:37:20;5.35;;;1.58;;
78549;SDS011;68091;52.130;5.570;2023-06-04T10:39:50;4.95;;;1.15;;
78549;SDS011;68091;52.130;5.570;2023-06-04T10:42:23;5.53;;;1.10;;
78549;SDS011;68091;52.130;5.570;2023-06-04T10:44:53;2.35;;;1.08;;
78549;SDS011;68091;52.130;5.570;2023-06-04T10:47:23;1.05;;;0.80;;
78549;SDS011;68091;52.130;5.570;2023-06-04T10:49:51;5.22;;;1.10;;
78549;SDS011;68091;52.130;5.570;2023-06-04T10:52:18;2.55;;;1.20;;
78549;SDS011;68091;52.130;5.570;2023-06-04T10:54:45;2.08;;;1.05;;
78549;SDS011;68091;52.130;5.570;2023-06-04T10:57:18;2.90;;;1.10;;
78549;SDS011;68091;52.130;5.570;2023-06-04T10:59:57;17.35;;;1.90;;
78549;SDS011;68091;52.130;5.570;2023-06-04T11:02:25;6.60;;;2.05;;
78549;SDS011;68091;52.130;5.570;2023-06-04T11:05:03;2.45;;;1.20;;
78549;SDS011;68091;52.130;5.570;2023-06-04T11:10:37;2.85;;;1.17;;
78549;SDS011;68091;52.130;5.570;2023-06-04T11:13:10;5.13;;;1.23;;
78549;SDS011;68091;52.130;5.570;2023-06-04T11:15:37;7.10;;;1.50;;
78549;SDS011;68091;52.130;5.570;2023-06-04T11:18:07;4.40;;;0.93;;
78549;SDS011;68091;52.130;5.570;2023-06-04T11:20:33;3.53;;;1.42;;
78549;SDS011;68091;52.130;5.570;2023-06-04T11:23:08;1.80;;;0.95;;
78549;SDS011;68091;52.130;5.570;2023-06-04T11:25:36;5.32;;;1.30;;
78549;SDS011;68091;52.130;5.570;2023-06-04T11:28:05;1.55;;;1.02;;
78549;SDS011;68091;52.130;5.570;2023-06-04T11:30:31;3.55;;;1.23;;
78549;SDS011;68091;52.130;5.570;2023-06-04T11:33:01;3.85;;;1.10;;
78549;SDS011;68091;52.130;5.570;2023-06-04T11:35:28;1.65;;;1.10;;
78549;SDS011;68091;52.130;5.570;2023-06-04T11:37:54;2.10;;;1.02;;
78549;SDS011;68091;52.130;5.570;2023-06-04T11:40:20;6.63;;;1.23;;
78549;SDS011;68091;52.130;5.570;2023-06-04T11:42:47;4.60;;;1.33;;
78549;SDS011;68091;52.130;5.570;2023-06-04T11:45:13;3.70;;;1.33;;
78549;SDS011;68091;52.130;5.570;2023-06-04T11:47:51;3.28;;;0.90;;
78549;SDS011;68091;52.130;5.570;2023-06-04T11:50:20;2.33;;;1.10;;
78549;SDS011;68091;52.130;5.570;2023-06-04T11:52:52;3.15;;;1.30;;
78549;SDS011;68091;52.130;5.570;2023-06-04T11:55:19;2.03;;;1.10;;
78549;SDS011;68091;52.130;5.570;2023-06-04T11:57:49;2.35;;;1.00;;
78549;SDS011;68091;52.130;5.570;2023-06-04T12:00:19;4.30;;;1.48;;
78549;SDS011;68091;52.130;5.570;2023-06-04T12:02:49;6.70;;;1.33;;
78549;SDS011;68091;52.130;5.570;2023-06-04T12:05:17;4.35;;;1.15;;
78549;SDS011;68091;52.130;5.570;2023-06-04T12:07:44;5.40;;;1.58;;
78549;SDS011;68091;52.130;5.570;2023-06-04T12:10:11;2.28;;;1.08;;
78549;SDS011;68091;52.130;5.570;2023-06-04T12:12:37;4.65;;;1.50;;
78549;SDS011;68091;52.130;5.570;2023-06-04T12:15:03;3.80;;;1.30;;
78549;SDS011;68091;52.130;5.570;2023-06-04T12:17:31;1.95;;;1.00;;
78549;SDS011;68091;52.130;5.570;2023-06-04T12:19:57;3.72;;;1.45;;
78549;SDS011;68091;52.130;5.570;2023-06-04T12:22:24;5.38;;;1.10;;
78549;SDS011;68091;52.130;5.570;2023-06-04T12:25:23;2.92;;;1.00;;
78549;SDS011;68091;52.130;5.570;2023-06-04T12:27:52;5.00;;;1.25;;
78549;SDS011;68091;52.130;5.570;2023-06-04T12:30:18;3.47;;;1.30;;
78549;SDS011;68091;52.130;5.570;2023-06-04T12:32:44;2.15;;;1.10;;
78549;SDS011;68091;52.130;5.570;2023-06-04T12:35:10;2.83;;;1.17;;
78549;SDS011;68091;52.130;5.570;2023-06-04T12:37:36;3.15;;;1.00;;
78549;SDS011;68091;52.130;5.570;2023-06-04T12:40:02;3.50;;;1.48;;
78549;SDS011;68091;52.130;5.570;2023-06-04T12:42:31;2.47;;;1.02;;
78549;SDS011;68091;52.130;5.570;2023-06-04T12:44:57;4.10;;;0.90;;
78549;SDS011;68091;52.130;5.570;2023-06-04T12:47:23;2.45;;;1.02;;
78549;SDS011;68091;52.130;5.570;2023-06-04T12:49:49;3.40;;;1.60;;
78549;SDS011;68091;52.130;5.570;2023-06-04T12:52:16;1.52;;;1.05;;
78549;SDS011;68091;52.130;5.570;2023-06-04T12:54:42;4.32;;;1.10;;
78549;SDS011;68091;52.130;5.570;2023-06-04T12:57:08;2.38;;;1.10;;
78549;SDS011;68091;52.130;5.570;2023-06-04T12:59:34;10.63;;;2.03;;
78549;SDS011;68091;52.130;5.570;2023-06-04T13:02:00;2.47;;;1.42;;
78549;SDS011;68091;52.130;5.570;2023-06-04T13:04:32;2.97;;;1.30;;
78549;SDS011;68091;52.130;5.570;2023-06-04T13:10:50;4.63;;;1.33;;
78549;SDS011;68091;52.130;5.570;2023-06-04T13:13:39;4.15;;;1.25;;
78549;SDS011;68091;52.130;5.570;2023-06-04T13:16:05;3.65;;;1.98;;
78549;SDS011;68091;52.130;5.570;2023-06-04T13:18:31;2.15;;;1.20;;
78549;SDS011;68091;52.130;5.570;2023-06-04T13:21:01;2.10;;;1.17;;
78549;SDS011;68091;52.130;5.570;2023-06-04T13:26:55;3.17;;;1.17;;
78549;SDS011;68091;52.130;5.570;2023-06-04T13:29:21;3.30;;;1.27;;
78549;SDS011;68091;52.130;5.570;2023-06-04T13:31:48;2.67;;;1.27;;
78549;SDS011;68091;52.130;5.570;2023-06-04T13:34:15;5.18;;;1.63;;
78549;SDS011;68091;52.130;5.570;2023-06-04T13:37:01;3.53;;;1.10;;
78549;SDS011;68091;52.130;5.570;2023-06-04T13:40:03;3.13;;;1.38;;
78549;SDS011;68091;52.130;5.570;2023-06-04T13:42:30;6.72;;;1.30;;
78549;SDS011;68091;52.130;5.570;2023-06-04T13:44:55;11.63;;;5.63;;
78549;SDS011;68091;52.130;5.570;2023-06-04T13:47:21;3.97;;;1.30;;
78549;SDS011;68091;52.130;5.570;2023-06-04T13:49:47;6.32;;;1.73;;
78549;SDS011;68091;52.130;5.570;2023-06-04T13:52:13;8.45;;;1.50;;
78549;SDS011;68091;52.130;5.570;2023-06-04T13:54:39;3.30;;;1.63;;
78549;SDS011;68091;52.130;5.570;2023-06-04T13:57:08;3.80;;;1.30;;
78549;SDS011;68091;52.130;5.570;2023-06-04T13:59:44;3.75;;;1.02;;
78549;SDS011;68091;52.130;5.570;2023-06-04T14:02:55;4.70;;;1.50;;
78549;SDS011;68091;52.130;5.570;2023-06-04T14:05:21;4.00;;;1.98;;
78549;SDS011;68091;52.130;5.570;2023-06-04T14:07:53;6.10;;;1.88;;
78549;SDS011;68091;52.130;5.570;2023-06-04T14:10:19;3.90;;;1.40;;
78549;SDS011;68091;52.130;5.570;2023-06-04T14:12:45;2.10;;;1.30;;
78549;SDS011;68091;52.130;5.570;2023-06-04T14:15:13;5.90;;;1.55;;
78549;SDS011;68091;52.130;5.570;2023-06-04T14:17:39;4.68;;;1.27;;
78549;SDS011;68091;52.130;5.570;2023-06-04T14:20:05;8.52;;;1.70;;
78549;SDS011;68091;52.130;5.570;2023-06-04T14:22:37;3.65;;;1.60;;
78549;SDS011;68091;52.130;5.570;2023-06-04T14:25:04;3.70;;;1.90;;
78549;SDS011;68091;52.130;5.570;2023-06-04T14:27:31;3.28;;;1.50;;
78549;SDS011;68091;52.130;5.570;2023-06-04T14:29:58;4.85;;;1.60;;
78549;SDS011;68091;52.130;5.570;2023-06-04T14:32:24;2.63;;;1.30;;
78549;SDS011;68091;52.130;5.570;2023-06-04T14:34:49;3.65;;;1.55;;
78549;SDS011;68091;52.130;5.570;2023-06-04T14:37:16;6.00;;;1.48;;
78549;SDS011;68091;52.130;5.570;2023-06-04T14:43:24;8.88;;;1.60;;
78549;SDS011;68091;52.130;5.570;2023-06-04T14:45:49;4.07;;;1.27;;
78549;SDS011;68091;52.130;5.570;2023-06-04T14:48:15;3.95;;;1.77;;
78549;SDS011;68091;52.130;5.570;2023-06-04T14:50:41;2.92;;;1.25;;
78549;SDS011;68091;52.130;5.570;2023-06-04T14:53:07;7.70;;;1.30;;
78549;SDS011;68091;52.130;5.570;2023-06-04T14:55:33;8.15;;;1.40;;
78549;SDS011;68091;52.130;5.570;2023-06-04T14:58:00;5.88;;;1.42;;
78549;SDS011;68091;52.130;5.570;2023-06-04T15:00:26;6.57;;;1.60;;
78549;SDS011;68091;52.130;5.570;2023-06-04T15:02:51;4.80;;;1.63;;
78549;SDS011;68091;52.130;5.570;2023-06-04T15:05:17;6.47;;;1.83;;
78549;SDS011;68091;52.130;5.570;2023-06-04T15:07:43;6.97;;;1.60;;
78549;SDS011;68091;52.130;5.570;2023-06-04T15:10:08;6.15;;;1.60;;
78549;SDS011;68091;52.130;5.570;2023-06-04T15:12:35;2.95;;;1.33;;
78549;SDS011;68091;52.130;5.570;2023-06-04T15:15:07;4.82;;;1.50;;